Nearby METAR Reports
METARS update every hour


KHZD - Huntingdon, Tennessee, USA
Distance from station: WNW 13mi, 21km
Updated: Fri, 23 Feb 2018 03:30 CST
NOT Current
Mist, Overcast
Mist, Overcast
 Wind from SSW
Wind: SSW 14 mph , 22 km/h, Gust: 22 mph , 35 km/h
Temperature: 63°F , 17°C
Dew Point: 61°F , 16°C
Humidity: 94%
Barometer: 30.21 inHg , 1023 hPa
Summary: Mist
Clouds: Overcast
Visibility: 2 miles , 3 km
Cloud Details: Mostly cloudy 400 ft
Overcast 3500 ft
2018/02/23 09:30 KHZD 230930Z AUTO 21012G19KT 2SM BR BKN004 OVC035 17/16 A3021 RMK A01
KPHT - Paris Henry Cty, Tennessee, USA
Distance from station: NNW 22mi, 35km
Updated: Fri, 23 Feb 2018 06:35 CST
Mist, Overcast
Mist, Overcast
 Wind from SSW
Wind: SSW 8 mph , 13 km/h, Gust: 16 mph , 26 km/h
Temperature: 63°F , 17°C
Dew Point: 63°F , 17°C
Humidity: 100%
Barometer: 30.23 inHg , 1023.7 hPa
Summary: Mist
Clouds: Overcast
Visibility: 3 miles , 5 km
Cloud Details: Few Clouds 300 ft
Mostly cloudy 1300 ft
Overcast 1800 ft
2018/02/23 12:35 KPHT 231235Z AUTO 20007G14KT 3SM BR FEW003 BKN013 OVC018 17/17 A3023 RMK A01
 
KPVE - Lexington-Parson, Tennessee, USA
Distance from station: S 27mi, 43km
Updated: Fri, 23 Feb 2018 06:35 CST
Mostly cloudy
Mostly cloudy
 Wind from S
Wind: S 7 mph , 11 km/h
Temperature: 63°F , 17°C
Dew Point: 61°F , 16°C
Humidity: 94%
Barometer: 30.27 inHg , 1025.1 hPa
Clouds: Mostly cloudy
Visibility: 10 miles , 16 km
Cloud Details: Mostly cloudy 4500 ft
2018/02/23 12:35 KPVE 231235Z AUTO 18006KT 10SM BKN045 17/16 A3027 RMK A01
KCEY - Murray Kyle-Oak, Kentucky, USA
Distance from station: N 44mi, 71km
Updated: Wed, 14 Feb 2018 12:55 CST
NOT Current
Overcast
Overcast
 Wind from S
Wind: S 6 mph , 9 km/h
Temperature: 59°F , 15°C
Dew Point: 59°F , 15°C
Humidity: 100%
Barometer: 30.20 inHg , 1022.7 hPa
Clouds: Overcast
Visibility: 1 1/4 miles , 2 km
Cloud Details: Overcast 400 ft
2018/02/14 18:55 KCEY 141855Z AUTO 19005KT 1 1/4SM OVC004 15/15 A3020 RMK AO1 P0010
 
KUCY - Union City, Tennessee, USA
Distance from station: WNW 48mi, 77km
Updated: Fri, 23 Feb 2018 06:35 CST
Mist, Overcast
Mist, Overcast
 Wind from varies
Wind: varies 5 mph , 7 km/h
Temperature: 57°F , 14°C
Dew Point: 57°F , 14°C
Humidity: 100%
Barometer: 30.25 inHg , 1024.4 hPa
Summary: Mist
Clouds: Overcast
Visibility: 5 miles , 8 km
Cloud Details: Few Clouds 300 ft
Partly cloudy 900 ft
Overcast 1600 ft
2018/02/23 12:35 KUCY 231235Z AUTO VRB04KT 5SM BR FEW003 SCT009 OVC016 14/14 A3025 RMK A01
KMKL - Jackson, Tennessee, USA
Distance from station: SW 48mi, 78km
Updated: Fri, 23 Feb 2018 05:53 CST
Mostly cloudy
Mostly cloudy
 Wind from SSW
Wind: SSW 12 mph , 19 km/h
Temperature: 64°F , 18°C
Dew Point: 63°F , 17°C
Humidity: 94%
Barometer: 30.24 inHg , 1024 hPa
Clouds: Mostly cloudy
Visibility: 10 miles , 16 km
Cloud Details: Few Clouds 2600 ft
Partly cloudy 9000 ft
Mostly cloudy 11000 ft
2018/02/23 11:53 KMKL 231153Z AUTO 20010KT 10SM FEW026 SCT090 BKN110 18/17 A3024 RMK AO2 SLP239 60001 70003 T01780167 10178 20139 55001
 
KM25 - Mayfield, Kentucky, USA
Distance from station: NNW 54mi, 87km
Updated: Fri, 23 Feb 2018 06:35 CST
Overcast
Overcast
 Wind from SSW
Wind: SSW 13 mph , 20 km/h, Gust: 16 mph , 26 km/h
Temperature: 61°F , 16°C
Dew Point: 61°F , 16°C
Humidity: 100%
Barometer: 30.23 inHg , 1023.7 hPa
Clouds: Overcast
Visibility: 2 1/2 miles , 4 km
Cloud Details: Partly cloudy 2100 ft
Mostly cloudy 5000 ft
Overcast 7500 ft
2018/02/23 12:35 KM25 231235Z AUTO 21011G14KT 2 1/2SM SCT021 BKN050 OVC075 16/16 A3023 RMK AO2 P0027 PWINO
KSZY - Selmer, Tennessee, USA
Distance from station: SSW 59mi, 96km
Updated: Fri, 23 Feb 2018 06:35 CST
Clear
Clear
 Wind from varies
Wind: varies 5 mph , 7 km/h, Gust: 12 mph , 19 km/h
Temperature: 63°F , 17°C
Dew Point: 61°F , 16°C
Humidity: 94%
Barometer: 30.28 inHg , 1025.4 hPa
Clouds: Clear
Visibility: 9 miles , 14 km
2018/02/23 12:35 KSZY 231235Z AUTO VRB04G10KT 9SM CLR 17/16 A3028 RMK A01
 
KHOP - Hopkinsville, Kentucky, USA
Distance from station: NE 60mi, 97km
Updated: Fri, 23 Feb 2018 06:34 CST
Light rain, Overcast
Light rain, Overcast
 Wind from calm
Wind: Calm
Temperature: 61°F , 16°C
Dew Point: 61°F , 16°C
Humidity: 100%
Barometer: 30.23 inHg , 1023.7 hPa
Summary: Light rain
Clouds: Overcast
Visibility: 9 miles , 14 km
Cloud Details: Few Clouds 200 ft
Overcast 3500 ft
2018/02/23 12:34 KHOP 231234Z AUTO 00000KT 9SM -RA FEW002 OVC035 16/16 A3023 RMK AO2 RAB06E32DZB32E33RAB33 SLP237
KSNH - Savannah Hardin, Tennessee, USA
Distance from station: S 60mi, 97km
Updated: Fri, 23 Feb 2018 06:35 CST
Mostly cloudy
Mostly cloudy
 Wind from S
Wind: S 6 mph , 9 km/h
Temperature: 63°F , 17°C
Dew Point: 61°F , 16°C
Humidity: 94%
Barometer: 30.28 inHg , 1025.4 hPa
Clouds: Mostly cloudy
Visibility: 10 miles , 16 km
Cloud Details: Mostly cloudy 4100 ft
Mostly cloudy 5000 ft
2018/02/23 12:35 KSNH 231235Z AUTO 17005KT 10SM BKN041 BKN050 17/16 A3028 RMK A01
 
KCKV - Clarksville, Tennessee, USA
Distance from station: NE 61mi, 98km
Updated: Fri, 23 Feb 2018 05:52 CST
Light rain, Overcast
Light rain, Overcast
 Wind from S
Wind: S 5 mph , 7 km/h
Temperature: 63°F , 17°C
Dew Point: 59°F , 15°C
Humidity: 88%
Barometer: 30.23 inHg , 1023.7 hPa
Summary: Light rain
Clouds: Overcast
Visibility: 9 miles , 14 km
Cloud Details: Overcast 6500 ft
2018/02/23 11:52 KCKV 231152Z AUTO 18004KT 9SM -RA OVC065 17/15 A3023 RMK AO2 SLP235 P0011 60056 70056 T01670150 10178 20133 58008
KDYR - Dyersburg, Tennessee, USA
Distance from station: W 65mi, 104km
Updated: Fri, 23 Feb 2018 05:56 CST
Overcast
Overcast
 Wind from calm
Wind: Calm
Temperature: 57°F , 14°C
Dew Point: 57°F , 14°C
Humidity: 100%
Barometer: 30.24 inHg , 1024 hPa
Clouds: Overcast
Visibility: 10 miles , 16 km
Cloud Details: Mostly cloudy 300 ft
Overcast 1100 ft
2018/02/23 11:56 KDYR 231156Z AUTO 00000KT 10SM BKN003 OVC011 14/14 A3024 RMK AO2 LTG DSNT W AND NW TSE1057RAB00E46 CIG 002V008 SLP257 6//// 7//// T01440144 10161 20106 51016 PNO $
 
KMRC - Columbia, Tennessee, USA
Distance from station: ESE 68mi, 110km
Updated: Fri, 23 Feb 2018 06:35 CST
Clear
Clear
 Wind from calm
Wind: Calm
Temperature: 61°F , 16°C
Dew Point: 61°F , 16°C
Humidity: 100%
Barometer: 30.28 inHg , 1025.4 hPa
Clouds: Clear
Visibility: 8 miles , 13 km
2018/02/23 12:35 KMRC 231235Z AUTO 00000KT 8SM CLR 16/16 A3028 RMK A01
KM08 - Bolivar/Whitehst, Tennessee, USA
Distance from station: SW 72mi, 117km
Updated: Fri, 23 Feb 2018 06:35 CST
Mostly cloudy
Mostly cloudy
 Wind from S
Wind: S 7 mph , 11 km/h
Temperature: 64°F , 18°C
Dew Point: 61°F , 16°C
Humidity: 88%
Barometer: 30.26 inHg , 1024.7 hPa
Clouds: Mostly cloudy
Visibility: 10 miles , 16 km
Cloud Details: Few Clouds 3700 ft
Partly cloudy 5000 ft
Mostly cloudy 5500 ft
2018/02/23 12:35 KM08 231235Z AUTO 18006KT 10SM FEW037 SCT050 BKN055 18/16 A3026 RMK A01
 
KJWN - Nashv/JC Tune, Tennessee, USA
Distance from station: E 77mi, 123km
Updated: Fri, 23 Feb 2018 06:35 CST
Overcast
Overcast
 Wind from calm
Wind: Calm
Temperature: 55°F , 13°C
Dew Point: 55°F , 13°C
Humidity: 100%
Barometer: 30.26 inHg , 1024.7 hPa
Clouds: Overcast
Visibility: 10 miles , 16 km
Cloud Details: Overcast 4000 ft
2018/02/23 12:35 KJWN 231235Z AUTO 00000KT 10SM OVC040 13/13 A3026 RMK A01
KPAH - Paducah, Kentucky, USA
Distance from station: NNW 77mi, 124km
Updated: Fri, 23 Feb 2018 05:53 CST
Light rain, Overcast
Light rain, Overcast
 Wind from SSW
Wind: SSW 12 mph , 19 km/h, Gust: 21 mph , 33 km/h
Temperature: 61°F , 16°C
Dew Point: 57°F , 14°C
Humidity: 88%
Barometer: 30.20 inHg , 1022.7 hPa
Summary: Light rain
Clouds: Overcast
Visibility: 7 miles , 11 km
Cloud Details: Overcast 900 ft
2018/02/23 11:53 KPAH 231153Z 21010G18KT 7SM -RA OVC009 16/14 A3020 RMK AO2 LTG DSNT SE CIG 006V013 SLP225 P0006 60124 70186 T01560144 10156 20106 53009
 
KCRX - Corinth/R Turner, Mississippi, USA
Distance from station: SSW 80mi, 128km
Updated: Fri, 23 Feb 2018 06:35 CST
Fog, Overcast
Fog, Overcast
 Wind from SE
Wind: SE 3 mph , 6 km/h
Temperature: 59°F , 15°C
Dew Point: 59°F , 15°C
Humidity: 100%
Barometer: 30.28 inHg , 1025.4 hPa
Summary: Fog
Clouds: Overcast
Visibility: 1/4 mile , 0.4 km
Cloud Details: Overcast 200 ft
2018/02/23 12:35 KCRX 231235Z AUTO 14003KT 1/4SM FG VV002 15/15 A3028 RMK AO2
KM04 - Covington Muni, Tennessee, USA
Distance from station: WSW 81mi, 131km
Updated: Fri, 23 Feb 2018 06:35 CST
Overcast
Overcast
 Wind from WNW
Wind: WNW 7 mph , 11 km/h
Temperature: 59°F , 15°C
Dew Point: 59°F , 15°C
Humidity: 100%
Barometer: 30.27 inHg , 1025.1 hPa
Clouds: Overcast
Visibility: 10 miles , 16 km
Cloud Details: Mostly cloudy 800 ft
Mostly cloudy 1300 ft
Overcast 1900 ft
2018/02/23 12:35 KM04 231235Z AUTO 29006KT 10SM BKN008 BKN013 OVC019 15/15 A3027 RMK A01
 
KM91 - Springfield, Tennessee, USA
Distance from station: ENE 82mi, 131km
Updated: Fri, 23 Feb 2018 06:35 CST
Overcast
Overcast
 Wind from SSE
Wind: SSE 6 mph , 9 km/h
Temperature: 61°F , 16°C
Dew Point: 61°F , 16°C
Humidity: 100%
Barometer: 30.25 inHg , 1024.4 hPa
Clouds: Overcast
Visibility: 10 miles , 16 km
Cloud Details: Few Clouds 4500 ft
Overcast 6500 ft
2018/02/23 12:35 KM91 231235Z AUTO 15005KT 10SM FEW045 OVC065 16/16 A3025 RMK A01
KM30 - Metropolis, Illinois, USA
Distance from station: NNW 84mi, 135km
Updated: Fri, 23 Feb 2018 06:35 CST
Rain, Overcast
Rain, Overcast
 Wind from SW
Wind: SW 5 mph , 7 km/h
Temperature: 59°F , 15°C
Dew Point: 57°F , 14°C
Humidity: 94%
Barometer: 30.23 inHg , 1023.7 hPa
Summary: Rain
Clouds: Overcast
Visibility: 2 1/2 miles , 4 km
Cloud Details: Overcast 700 ft
2018/02/23 12:35 KM30 231235Z AUTO 23004KT 2 1/2SM RA OVC007 15/14 A3023 RMK AO2 LTG DSNT E A
 
KNQA - Millington/88d, Tennessee, USA
Distance from station: WSW 103mi, 165km
Updated: Fri, 23 Feb 2018 05:50 CST
Overcast
Overcast
 Wind from W
Wind: W 3 mph , 6 km/h
Temperature: 57°F , 14°C
Dew Point: 57°F , 14°C
Humidity: 100%
Barometer: 30.22 inHg , 1023.4 hPa
Clouds: Overcast
Visibility: 10 miles , 16 km
Cloud Details: Few Clouds 500 ft
Partly cloudy 1200 ft
Overcast 1800 ft
2018/02/23 11:50 KNQA 231150Z 26003KT 10SM FEW005 SCT012 OVC018 14/14 A3022
K9A4 - Courtland, Alabama, USA
Distance from station: SSE 107mi, 172km
Updated: Thu, 22 Aug 2013 14:15 CDT
NOT Current
Clear
Clear
 Wind from NNE
Wind: NNE 6 mph , 9 km/h
Temperature: 84°F , 29°C
Heat Index: 89°F , 32°C
Dew Point: 72°F , 22°C
Humidity: 66%
Barometer: 30.10 inHg , 1019.3 hPa
Clouds: Clear
Visibility: 10 miles , 16 km
2013/08/22 19:15 K9A4 221915Z AUTO 03005KT 10SM CLR 29/22 A3010 RMK AO2
 
KCGI - Cape Girardeau, Missouri, USA
Distance from station: NW 111mi, 179km
Updated: Fri, 23 Feb 2018 06:17 CST
Overcast
Overcast
 Wind from WSW
Wind: WSW 12 mph , 19 km/h
Temperature: 54°F , 12°C
Dew Point: 52°F , 11°C
Humidity: 94%
Barometer: 30.23 inHg , 1023.7 hPa
Clouds: Overcast
Visibility: 10 miles , 16 km
Cloud Details: Overcast 400 ft
2018/02/23 12:17 KCGI 231217Z AUTO 24010KT 10SM OVC004 12/11 A3023 RMK AO2 PRESRR T01170111